createdAt,value
2018-07-31T00:00:10.177Z,19.3
2018-07-31T00:01:17.389Z,19.3
2018-07-31T00:02:24.318Z,19.3
2018-07-31T00:03:31.703Z,19.3
2018-07-31T00:04:38.694Z,19.3
2018-07-31T00:05:45.906Z,19.3
2018-07-31T00:06:53.120Z,19.3
2018-07-31T00:08:00.333Z,19.2
2018-07-31T00:09:07.548Z,19.2
2018-07-31T00:10:14.756Z,19.2
2018-07-31T00:11:21.972Z,19.2
2018-07-31T00:12:29.186Z,19.2
2018-07-31T00:13:36.124Z,19.1
2018-07-31T00:14:43.341Z,19.2
2018-07-31T00:15:50.555Z,19.1
2018-07-31T00:16:57.500Z,19.1
2018-07-31T00:18:04.715Z,19.1
2018-07-31T00:19:11.928Z,19.1
2018-07-31T00:20:19.140Z,19.1
2018-07-31T00:21:26.356Z,19
2018-07-31T00:22:33.567Z,19
2018-07-31T00:23:40.785Z,19
2018-07-31T00:24:47.996Z,19
2018-07-31T00:25:55.208Z,18.9
2018-07-31T00:27:02.417Z,19
2018-07-31T00:28:09.352Z,18.9
2018-07-31T00:29:16.284Z,18.9
2018-07-31T00:30:23.219Z,18.8
2018-07-31T00:31:30.430Z,18.9
2018-07-31T00:32:37.642Z,18.8
2018-07-31T00:33:44.856Z,18.8
2018-07-31T00:34:52.067Z,18.8
2018-07-31T00:35:59.283Z,18.8
2018-07-31T00:37:06.495Z,18.8
2018-07-31T00:38:13.928Z,18.8
2018-07-31T00:39:21.144Z,18.7
2018-07-31T00:40:28.356Z,18.7
2018-07-31T00:41:35.572Z,18.7
2018-07-31T00:42:42.787Z,18.7
2018-07-31T00:43:49.999Z,18.7
2018-07-31T00:44:57.217Z,18.7
2018-07-31T00:46:04.433Z,18.7
2018-07-31T00:47:11.651Z,18.6
2018-07-31T00:48:18.859Z,18.7
2018-07-31T00:49:26.072Z,18.7
2018-07-31T00:50:32.736Z,18.6
2018-07-31T00:51:39.951Z,18.6
2018-07-31T00:52:47.170Z,18.6
2018-07-31T00:53:54.382Z,18.6
2018-07-31T00:55:01.603Z,18.6
2018-07-31T00:56:08.818Z,18.6
2018-07-31T00:57:16.036Z,18.5
2018-07-31T00:58:23.245Z,18.5
2018-07-31T00:59:30.457Z,18.5
2018-07-31T01:00:37.669Z,18.5
2018-07-31T01:01:44.880Z,18.5
2018-07-31T01:02:52.098Z,18.5
2018-07-31T01:03:59.308Z,18.5
2018-07-31T01:05:06.523Z,18.4
2018-07-31T01:06:13.733Z,18.4
2018-07-31T01:07:20.955Z,18.4
2018-07-31T01:08:28.167Z,18.4
2018-07-31T01:09:35.377Z,18.4
2018-07-31T01:10:42.587Z,18.4
2018-07-31T01:11:49.798Z,18.3
2018-07-31T01:12:57.017Z,18.3
2018-07-31T01:14:04.232Z,18.3
2018-07-31T01:15:11.448Z,18.3
2018-07-31T01:16:18.662Z,18.4
2018-07-31T01:17:25.875Z,18.3
2018-07-31T01:18:32.539Z,18.3
2018-07-31T01:19:39.754Z,18.3
2018-07-31T01:20:46.961Z,18.3
2018-07-31T01:21:53.891Z,18.2
2018-07-31T01:23:01.109Z,18.2
2018-07-31T01:24:08.317Z,18.2
2018-07-31T01:25:15.530Z,18.2
2018-07-31T01:26:22.742Z,18.2
2018-07-31T01:27:29.674Z,18.2
2018-07-31T01:28:36.887Z,18.2
2018-07-31T01:29:44.102Z,18.2
2018-07-31T01:30:51.316Z,18.1
2018-07-31T01:31:58.257Z,18.1
2018-07-31T01:33:05.466Z,18.1
2018-07-31T01:34:12.676Z,18.1
2018-07-31T01:35:19.890Z,18.1
2018-07-31T01:36:27.100Z,18.1
2018-07-31T01:37:34.313Z,18.1
2018-07-31T01:38:41.261Z,18.1
2018-07-31T01:39:48.474Z,18
2018-07-31T01:40:55.688Z,18
2018-07-31T01:42:02.904Z,18
2018-07-31T01:43:10.109Z,17.9
2018-07-31T01:44:17.322Z,17.9
2018-07-31T01:45:24.531Z,18
2018-07-31T01:46:31.748Z,17.9
2018-07-31T01:47:38.958Z,17.9
2018-07-31T01:48:46.201Z,17.9
2018-07-31T01:49:53.136Z,17.9
2018-07-31T01:51:00.359Z,17.9
2018-07-31T01:52:07.573Z,17.9
2018-07-31T01:53:14.788Z,17.9
2018-07-31T01:54:21.999Z,17.9
2018-07-31T01:55:29.211Z,17.8
2018-07-31T01:56:36.419Z,17.8
2018-07-31T01:57:43.355Z,17.8
2018-07-31T01:58:50.565Z,17.8
2018-07-31T01:59:57.774Z,17.8
2018-07-31T02:01:04.994Z,17.8
2018-07-31T02:02:12.207Z,17.7
2018-07-31T02:03:19.419Z,17.7
2018-07-31T02:04:26.643Z,17.7
2018-07-31T02:05:33.854Z,17.7
2018-07-31T02:06:41.062Z,17.7
2018-07-31T02:07:48.277Z,17.7
2018-07-31T02:08:55.184Z,17.6
2018-07-31T02:10:02.404Z,17.6
2018-07-31T02:11:09.612Z,17.6
2018-07-31T02:12:16.825Z,17.6
2018-07-31T02:13:24.034Z,17.5
2018-07-31T02:14:31.246Z,17.5
2018-07-31T02:15:38.460Z,17.6
2018-07-31T02:16:45.670Z,17.5
2018-07-31T02:17:52.886Z,17.6
2018-07-31T02:19:00.097Z,17.5
2018-07-31T02:20:07.032Z,17.5
2018-07-31T02:21:14.243Z,17.5
2018-07-31T02:22:21.454Z,17.5
2018-07-31T02:23:28.663Z,17.5
2018-07-31T02:24:35.873Z,17.5
2018-07-31T02:25:43.084Z,17.5
2018-07-31T02:26:50.301Z,17.5
2018-07-31T02:27:57.655Z,17.5
2018-07-31T02:29:05.030Z,17.5
2018-07-31T02:30:12.251Z,17.5
2018-07-31T02:31:19.451Z,17.4
2018-07-31T02:32:26.666Z,17.5
2018-07-31T02:33:33.876Z,17.5
2018-07-31T02:34:41.089Z,17.5
2018-07-31T02:35:48.299Z,17.5
2018-07-31T02:36:55.513Z,17.4
2018-07-31T02:38:02.723Z,17.4
2018-07-31T02:39:09.933Z,17.4
2018-07-31T02:40:17.143Z,17.4
2018-07-31T02:41:24.355Z,17.4
2018-07-31T02:42:31.575Z,17.3
2018-07-31T02:43:38.788Z,17.3
2018-07-31T02:44:46.000Z,17.3
2018-07-31T02:45:53.214Z,17.3
2018-07-31T02:47:00.607Z,17.3
2018-07-31T02:48:08.234Z,17.3
2018-07-31T02:49:15.448Z,17.3
2018-07-31T02:50:22.661Z,17.2
2018-07-31T02:51:29.873Z,17.2
2018-07-31T02:52:37.083Z,17.2
2018-07-31T02:53:44.291Z,17.2
2018-07-31T02:54:51.508Z,17.1
2018-07-31T02:55:58.717Z,17.1
2018-07-31T02:57:05.930Z,17.1
2018-07-31T02:58:13.299Z,17.1
2018-07-31T02:59:20.610Z,17.1
2018-07-31T03:00:27.824Z,17.1
2018-07-31T03:01:35.035Z,17.1
2018-07-31T03:02:42.254Z,17.1
2018-07-31T03:03:49.461Z,17.1
2018-07-31T03:04:56.672Z,17.1
2018-07-31T03:06:03.885Z,17.1
2018-07-31T03:07:11.090Z,17.1
2018-07-31T03:08:18.585Z,17.1
2018-07-31T03:09:26.023Z,17.1
2018-07-31T03:10:33.231Z,17.1
2018-07-31T03:11:40.448Z,17
2018-07-31T03:12:47.388Z,17
2018-07-31T03:13:54.600Z,17
2018-07-31T03:15:01.807Z,17
2018-07-31T03:16:08.757Z,17
2018-07-31T03:17:15.970Z,16.9
2018-07-31T03:18:22.937Z,16.9
2018-07-31T03:19:30.150Z,17
2018-07-31T03:20:37.364Z,17
2018-07-31T03:21:44.572Z,17
2018-07-31T03:22:51.516Z,17
2018-07-31T03:23:58.734Z,17
2018-07-31T03:25:05.942Z,17
2018-07-31T03:26:13.166Z,17
2018-07-31T03:27:20.371Z,17
2018-07-31T03:28:27.608Z,17
2018-07-31T03:29:34.819Z,17
2018-07-31T03:30:41.748Z,17
2018-07-31T03:31:48.962Z,16.9
2018-07-31T03:32:56.167Z,16.9
2018-07-31T03:34:03.373Z,16.9
2018-07-31T03:35:10.589Z,16.9
2018-07-31T03:36:17.802Z,16.9
2018-07-31T03:37:24.736Z,16.9
2018-07-31T03:38:31.949Z,16.9
2018-07-31T03:39:38.888Z,16.9
2018-07-31T03:40:46.101Z,16.9
2018-07-31T03:41:53.309Z,16.9
2018-07-31T03:43:00.520Z,16.9
2018-07-31T03:44:07.729Z,16.9
2018-07-31T03:45:14.941Z,16.9
2018-07-31T03:46:22.157Z,16.9
2018-07-31T03:47:29.372Z,16.9
2018-07-31T03:48:36.580Z,16.9
2018-07-31T03:49:43.789Z,16.9
2018-07-31T03:50:50.726Z,16.9
2018-07-31T03:51:57.668Z,16.9
2018-07-31T03:53:04.880Z,16.9
2018-07-31T03:54:12.099Z,16.9
2018-07-31T03:55:19.312Z,16.9
2018-07-31T03:56:26.352Z,16.9
2018-07-31T03:57:33.712Z,16.9
2018-07-31T03:58:40.930Z,16.8
2018-07-31T03:59:48.139Z,16.8
2018-07-31T04:00:55.359Z,16.8
2018-07-31T04:02:02.576Z,16.8
2018-07-31T04:03:09.792Z,16.8
2018-07-31T04:04:16.735Z,16.8
2018-07-31T04:05:24.033Z,16.7
2018-07-31T04:06:31.346Z,16.7
2018-07-31T04:07:38.561Z,16.8
2018-07-31T04:08:45.770Z,16.7
2018-07-31T04:09:52.992Z,16.8
2018-07-31T04:11:00.196Z,16.8
2018-07-31T04:12:07.407Z,16.8
2018-07-31T04:13:14.624Z,16.7
2018-07-31T04:14:21.841Z,16.7
2018-07-31T04:15:29.048Z,16.7
2018-07-31T04:16:36.257Z,16.8
2018-07-31T04:17:43.470Z,16.7
2018-07-31T04:18:50.411Z,16.8
2018-07-31T04:19:57.616Z,16.8
2018-07-31T04:21:04.828Z,16.7
2018-07-31T04:22:12.037Z,16.8
2018-07-31T04:23:19.251Z,16.8
2018-07-31T04:24:26.466Z,16.8
2018-07-31T04:25:33.689Z,16.8
2018-07-31T04:26:40.909Z,16.8
2018-07-31T04:27:48.120Z,16.8
2018-07-31T04:28:55.339Z,16.8
2018-07-31T04:30:02.614Z,16.9
2018-07-31T04:31:09.946Z,16.9
2018-07-31T04:32:17.162Z,16.9
2018-07-31T04:33:24.371Z,16.9
2018-07-31T04:34:46.235Z,16.9
2018-07-31T04:35:53.576Z,16.9
2018-07-31T04:37:00.658Z,16.9
2018-07-31T04:38:07.612Z,16.9
2018-07-31T04:39:14.807Z,16.9
2018-07-31T04:40:22.021Z,16.9
2018-07-31T04:41:29.234Z,16.9
2018-07-31T04:42:50.824Z,17
2018-07-31T04:43:58.036Z,17
2018-07-31T04:45:05.249Z,17
2018-07-31T04:46:12.461Z,17
2018-07-31T04:47:19.675Z,17
2018-07-31T04:48:26.885Z,17
2018-07-31T04:49:34.095Z,17.1
2018-07-31T04:50:41.034Z,17.1
2018-07-31T04:51:47.974Z,17.1
2018-07-31T04:52:55.188Z,17.2
2018-07-31T04:54:02.395Z,17.2
2018-07-31T04:55:09.061Z,17.2
2018-07-31T04:56:15.722Z,17.2
2018-07-31T04:57:22.935Z,17.2
2018-07-31T04:58:30.146Z,17.3
2018-07-31T04:59:37.364Z,17.3
2018-07-31T05:00:44.589Z,17.3
2018-07-31T05:01:51.830Z,17.3
2018-07-31T05:02:59.027Z,17.4
2018-07-31T05:04:06.251Z,17.4
2018-07-31T05:05:13.463Z,17.4
2018-07-31T05:06:20.679Z,17.4
2018-07-31T05:07:27.888Z,17.5
2018-07-31T05:08:35.100Z,17.5
2018-07-31T05:09:42.319Z,17.5
2018-07-31T05:11:04.240Z,17.5
2018-07-31T05:12:11.633Z,17.5
2018-07-31T05:13:18.857Z,17.6
2018-07-31T05:14:26.086Z,17.6
2018-07-31T05:15:33.298Z,17.6
2018-07-31T05:16:40.250Z,17.7
2018-07-31T05:17:47.464Z,17.7
2018-07-31T05:18:54.675Z,17.8
2018-07-31T05:20:01.891Z,17.8
2018-07-31T05:21:08.832Z,17.9
2018-07-31T05:22:16.045Z,17.9
2018-07-31T05:23:23.254Z,17.9
2018-07-31T05:24:30.190Z,18
2018-07-31T05:25:37.409Z,18.1
2018-07-31T05:26:44.626Z,18.1
2018-07-31T05:27:51.839Z,18.2
2018-07-31T05:28:59.051Z,18.2
2018-07-31T05:30:05.989Z,18.3
2018-07-31T05:31:13.209Z,18.3
2018-07-31T05:32:20.434Z,18.4
2018-07-31T05:33:27.650Z,18.5
2018-07-31T05:34:34.856Z,18.5
2018-07-31T05:35:42.066Z,18.5
2018-07-31T05:36:49.282Z,18.6
2018-07-31T05:37:56.491Z,18.6
2018-07-31T05:39:03.700Z,18.6
2018-07-31T05:40:10.916Z,18.7
2018-07-31T05:41:18.127Z,18.7
2018-07-31T05:42:25.343Z,18.7
2018-07-31T05:43:32.286Z,18.8
2018-07-31T05:44:39.523Z,18.9
2018-07-31T05:45:46.458Z,18.9
2018-07-31T05:46:53.672Z,19
2018-07-31T05:48:00.885Z,19.1
2018-07-31T05:49:07.826Z,19.2
2018-07-31T05:50:15.050Z,19.2
2018-07-31T05:51:21.986Z,19.4
2018-07-31T05:52:28.927Z,19.5
2018-07-31T05:53:36.137Z,19.7
2018-07-31T05:54:43.372Z,19.8
2018-07-31T05:55:50.321Z,19.9
2018-07-31T05:56:57.536Z,20.1
2018-07-31T05:58:04.759Z,20.3
2018-07-31T05:59:11.983Z,20.5
2018-07-31T06:00:19.199Z,20.7
2018-07-31T06:01:26.415Z,20.8
2018-07-31T06:02:33.629Z,20.9
2018-07-31T06:03:40.782Z,21
2018-07-31T06:04:48.000Z,21.2
2018-07-31T06:05:55.218Z,21.2
2018-07-31T06:07:02.444Z,21.3
2018-07-31T06:08:09.665Z,21.4
2018-07-31T06:09:16.876Z,21.5
2018-07-31T06:10:24.086Z,21.7
2018-07-31T06:11:31.296Z,21.8
2018-07-31T06:12:38.517Z,22
2018-07-31T06:13:45.730Z,22.2
2018-07-31T06:14:52.666Z,22.5
2018-07-31T06:15:59.888Z,22.7
2018-07-31T06:17:07.096Z,23
2018-07-31T06:18:14.311Z,23.3
2018-07-31T06:19:21.524Z,23.4
2018-07-31T06:20:28.463Z,23.4
2018-07-31T06:21:35.401Z,23.5
2018-07-31T06:22:42.620Z,23.6
2018-07-31T06:23:49.834Z,23.8
2018-07-31T06:24:57.049Z,24
2018-07-31T06:26:04.285Z,24.2
2018-07-31T06:27:11.502Z,24.4
2018-07-31T06:28:18.715Z,24.5
2018-07-31T06:29:25.930Z,24.6
2018-07-31T06:30:33.139Z,24.8
2018-07-31T06:31:40.363Z,25
2018-07-31T06:32:47.662Z,25.2
2018-07-31T06:33:54.920Z,25.3
2018-07-31T06:35:02.139Z,25.5
2018-07-31T06:36:09.363Z,25.6
2018-07-31T06:37:16.582Z,25.7
2018-07-31T06:38:24.002Z,25.9
2018-07-31T06:39:31.225Z,26
2018-07-31T06:40:38.447Z,26.1
2018-07-31T06:41:45.678Z,26.3
2018-07-31T06:42:52.889Z,26.3
2018-07-31T06:44:00.111Z,26.3
2018-07-31T06:45:07.052Z,26.3
2018-07-31T06:46:14.272Z,26.4
2018-07-31T06:47:21.211Z,26.6
2018-07-31T06:48:28.146Z,26.9
2018-07-31T06:49:35.358Z,27
2018-07-31T06:50:42.583Z,27.2
2018-07-31T06:51:49.803Z,27.4
2018-07-31T06:52:56.742Z,27.5
2018-07-31T06:54:03.960Z,27.6
2018-07-31T06:55:11.180Z,27.7
2018-07-31T06:56:18.394Z,27.8
2018-07-31T06:57:25.612Z,28
2018-07-31T06:58:32.570Z,28.1
2018-07-31T06:59:39.787Z,28
2018-07-31T07:00:47.014Z,28.1
2018-07-31T07:01:54.251Z,28.2
2018-07-31T07:03:01.449Z,28.3
2018-07-31T07:04:08.668Z,28.1
2018-07-31T07:05:15.890Z,28.1
2018-07-31T07:06:23.106Z,28.3
2018-07-31T07:07:30.325Z,28.6
2018-07-31T07:08:37.541Z,28.7
2018-07-31T07:09:44.759Z,28.8
2018-07-31T07:10:51.976Z,28.8
2018-07-31T07:11:59.195Z,28.9
2018-07-31T07:13:06.417Z,29
2018-07-31T07:14:13.634Z,29.3
2018-07-31T07:15:20.959Z,29.5
2018-07-31T07:16:27.961Z,29.6
2018-07-31T07:17:34.902Z,29.7
2018-07-31T07:18:42.116Z,29.8
2018-07-31T07:19:49.339Z,29.9
2018-07-31T07:20:56.560Z,29.9
2018-07-31T07:22:03.782Z,30
2018-07-31T07:23:10.999Z,30
2018-07-31T07:24:17.954Z,30.1
2018-07-31T07:25:25.177Z,30.2
2018-07-31T07:26:32.392Z,30.4
2018-07-31T07:27:39.617Z,30.6
2018-07-31T07:28:46.829Z,30.9
2018-07-31T07:29:54.051Z,30.9
2018-07-31T07:31:01.268Z,31
2018-07-31T07:32:08.481Z,31
2018-07-31T07:33:15.722Z,31.2
2018-07-31T07:34:22.942Z,31.3
2018-07-31T07:35:30.160Z,31.3
2018-07-31T07:36:37.379Z,31.4
2018-07-31T07:37:44.593Z,31.4
2018-07-31T07:38:51.812Z,31.5
2018-07-31T07:39:58.756Z,31.4
2018-07-31T07:41:05.977Z,31.5
2018-07-31T07:42:13.197Z,31.5
2018-07-31T07:43:20.420Z,31.5
2018-07-31T07:44:27.634Z,31.7
2018-07-31T07:45:34.848Z,31.9
2018-07-31T07:46:42.062Z,32.1
2018-07-31T07:47:49.286Z,32.3
2018-07-31T07:48:56.510Z,32.4
2018-07-31T07:50:03.730Z,32.4
2018-07-31T07:51:10.949Z,32.3
2018-07-31T07:52:18.169Z,32.3
2018-07-31T07:53:25.109Z,32.2
2018-07-31T07:54:32.330Z,32.2
2018-07-31T07:55:39.541Z,32.1
2018-07-31T07:56:46.764Z,32.1
2018-07-31T07:57:53.698Z,32.2
2018-07-31T07:59:00.638Z,32.5
2018-07-31T08:00:07.609Z,32.9
2018-07-31T08:01:14.826Z,33.1
2018-07-31T08:02:22.046Z,33.3
2018-07-31T08:03:29.267Z,33.6
2018-07-31T08:04:36.486Z,33.5
2018-07-31T08:05:43.731Z,33.5
2018-07-31T08:06:50.954Z,33.5
2018-07-31T08:07:57.904Z,33.5
2018-07-31T08:09:05.121Z,33.5
2018-07-31T08:10:12.072Z,33.5
2018-07-31T08:11:19.287Z,33.4
2018-07-31T08:12:26.517Z,33.3
2018-07-31T08:13:33.738Z,33.4
2018-07-31T08:14:40.965Z,33.6
2018-07-31T08:15:48.182Z,33.6
2018-07-31T08:16:55.399Z,33.6
2018-07-31T08:18:02.623Z,33.7
2018-07-31T08:19:09.842Z,33.7
2018-07-31T08:20:17.071Z,33.8
2018-07-31T08:21:24.364Z,33.9
2018-07-31T08:22:31.617Z,33.9
2018-07-31T08:23:38.919Z,33.9
2018-07-31T08:24:46.124Z,34.2
2018-07-31T08:25:53.351Z,34.4
2018-07-31T08:27:00.570Z,34.4
2018-07-31T08:28:07.811Z,34.6
2018-07-31T08:29:15.031Z,34.9
2018-07-31T08:30:22.251Z,34.9
2018-07-31T08:31:29.464Z,34.9
2018-07-31T08:32:36.682Z,34.9
2018-07-31T08:33:43.901Z,34.8
2018-07-31T08:34:51.121Z,34.8
2018-07-31T08:35:58.337Z,35
2018-07-31T08:37:05.558Z,35.1
2018-07-31T08:38:12.504Z,35.5
2018-07-31T08:39:19.729Z,35.7
2018-07-31T08:40:26.958Z,35.6
2018-07-31T08:41:34.182Z,35.2
2018-07-31T08:42:41.404Z,35.3
2018-07-31T08:43:48.623Z,35.4
2018-07-31T08:44:55.845Z,35.3
2018-07-31T08:46:03.064Z,35.4
2018-07-31T08:47:10.283Z,35.3
2018-07-31T08:48:17.509Z,35.4
2018-07-31T08:49:24.724Z,35.7
2018-07-31T08:50:31.948Z,35.9
2018-07-31T08:51:39.167Z,35.9
2018-07-31T08:52:46.389Z,35.9
2018-07-31T08:53:53.611Z,35.8
2018-07-31T08:55:00.852Z,35.9
2018-07-31T08:56:08.072Z,35.7
2018-07-31T08:57:15.015Z,35.5
2018-07-31T08:58:21.972Z,35.3
2018-07-31T08:59:29.191Z,35.4
2018-07-31T09:00:36.406Z,35.7
2018-07-31T09:01:43.633Z,35.5
2018-07-31T09:02:50.948Z,35.4
2018-07-31T09:03:58.344Z,35.4
2018-07-31T09:05:05.290Z,35.4
2018-07-31T09:06:12.512Z,35.4
2018-07-31T09:07:19.736Z,35.8
2018-07-31T09:08:27.268Z,35.8
2018-07-31T09:09:34.927Z,36
2018-07-31T09:10:42.151Z,36.1
2018-07-31T09:11:49.380Z,36.2
2018-07-31T09:12:56.604Z,36.2
2018-07-31T09:14:03.828Z,36.2
2018-07-31T09:15:11.050Z,36.4
2018-07-31T09:16:18.279Z,36.3
2018-07-31T09:17:25.258Z,36.2
2018-07-31T09:18:32.583Z,36.1
2018-07-31T09:19:39.803Z,36
2018-07-31T09:20:47.055Z,35.9
2018-07-31T09:21:54.272Z,35.9
2018-07-31T09:23:01.492Z,35.8
2018-07-31T09:24:08.732Z,36.1
2018-07-31T09:25:15.954Z,36.5
2018-07-31T09:26:23.176Z,36.7
2018-07-31T09:27:30.395Z,36.9
2018-07-31T09:28:37.619Z,36.8
2018-07-31T09:29:44.845Z,36.7
2018-07-31T09:30:52.353Z,36.9
2018-07-31T09:32:00.024Z,36.8
2018-07-31T09:33:07.465Z,36.8
2018-07-31T09:34:14.691Z,37.2
2018-07-31T09:35:21.935Z,37.3
2018-07-31T09:36:29.233Z,37.7
2018-07-31T09:37:36.597Z,37.7
2018-07-31T09:38:43.825Z,37.6
2018-07-31T09:39:51.042Z,37.8
2018-07-31T09:40:58.261Z,37.5
2018-07-31T09:42:05.218Z,37.5
2018-07-31T09:43:12.439Z,37.5
2018-07-31T09:44:19.679Z,37.6
2018-07-31T09:45:26.909Z,37.7
2018-07-31T09:46:34.134Z,37.4
2018-07-31T09:47:41.358Z,36.7
2018-07-31T09:48:48.583Z,36.4
2018-07-31T09:49:55.819Z,36.2
2018-07-31T09:51:03.042Z,36.3
2018-07-31T09:52:10.269Z,36.3
2018-07-31T09:53:17.490Z,36.5
2018-07-31T09:54:24.721Z,36.5
2018-07-31T09:55:31.943Z,36.6
2018-07-31T09:56:39.379Z,36.8
2018-07-31T09:57:46.600Z,37.1
2018-07-31T09:58:53.826Z,37.3
2018-07-31T10:00:01.056Z,37.4
2018-07-31T10:01:08.014Z,37.5
2018-07-31T10:02:15.242Z,37.8
2018-07-31T10:03:22.485Z,37.9
2018-07-31T10:04:29.708Z,38
2018-07-31T10:05:36.932Z,37.9
2018-07-31T10:06:44.188Z,37.9
2018-07-31T10:07:51.412Z,38
2018-07-31T10:08:58.639Z,38
2018-07-31T10:10:05.592Z,38.1
2018-07-31T10:11:12.821Z,38.2
2018-07-31T10:12:20.044Z,38.5
2018-07-31T10:13:27.279Z,38.8
2018-07-31T10:14:34.496Z,38.9
2018-07-31T10:15:41.725Z,38.7
2018-07-31T10:16:48.947Z,38.4
2018-07-31T10:17:56.376Z,38.4
2018-07-31T10:19:03.330Z,38.7
2018-07-31T10:20:25.209Z,38.7
2018-07-31T10:21:32.436Z,38.7
2018-07-31T10:22:39.658Z,38.8
2018-07-31T10:23:46.609Z,38.8
2018-07-31T10:24:53.840Z,38.9
2018-07-31T10:26:01.068Z,38.6
2018-07-31T10:27:08.291Z,38.7
2018-07-31T10:28:15.520Z,38.9
2018-07-31T10:29:22.742Z,38.7
2018-07-31T10:30:30.004Z,38.6
2018-07-31T10:31:37.297Z,38.6
2018-07-31T10:32:44.517Z,38.5
2018-07-31T10:33:51.743Z,38.4
2018-07-31T10:34:58.965Z,38.5
2018-07-31T10:36:06.191Z,38.7
2018-07-31T10:37:13.414Z,38.7
2018-07-31T10:38:20.638Z,38.7
2018-07-31T10:39:27.862Z,38.5
2018-07-31T10:40:35.115Z,38.4
2018-07-31T10:41:42.337Z,38.7
2018-07-31T10:42:49.561Z,39.2
2018-07-31T10:43:56.808Z,39.5
2018-07-31T10:45:04.114Z,39.2
2018-07-31T10:46:11.341Z,38.8
2018-07-31T10:47:18.561Z,38.8
2018-07-31T10:48:25.793Z,38.4
2018-07-31T10:49:33.018Z,38.4
2018-07-31T10:50:40.347Z,38.7
2018-07-31T10:51:47.775Z,39
2018-07-31T10:52:55.038Z,39.2
2018-07-31T10:54:02.277Z,39.4
2018-07-31T10:55:09.708Z,39.7
2018-07-31T10:56:17.260Z,39.6
2018-07-31T10:57:24.488Z,38.9
2018-07-31T10:58:31.854Z,38.5
2018-07-31T10:59:39.630Z,38.3
2018-07-31T11:00:47.051Z,38.7
2018-07-31T11:01:54.274Z,39.2
2018-07-31T11:03:01.587Z,39.5
2018-07-31T11:04:08.901Z,39.3
2018-07-31T11:05:16.196Z,38.7
2018-07-31T11:06:23.602Z,38.3
2018-07-31T11:07:31.120Z,38.4
2018-07-31T11:08:38.340Z,38.6
2018-07-31T11:09:45.299Z,38.7
2018-07-31T11:10:52.529Z,39
2018-07-31T11:11:59.771Z,39.3
2018-07-31T11:13:06.741Z,39.5
2018-07-31T11:14:13.994Z,39.1
2018-07-31T11:15:21.253Z,39.2
2018-07-31T11:16:28.490Z,39.3
2018-07-31T11:17:35.709Z,39.5
2018-07-31T11:18:42.937Z,39.6
2018-07-31T11:19:50.157Z,39.8
2018-07-31T11:20:57.198Z,40.3
2018-07-31T11:22:04.658Z,40.5
2018-07-31T11:23:11.876Z,40
2018-07-31T11:24:18.825Z,39.7
2018-07-31T11:25:26.055Z,40
2018-07-31T11:26:33.287Z,40.1
2018-07-31T11:27:40.513Z,40.2
2018-07-31T11:28:47.732Z,39.9
2018-07-31T11:29:54.957Z,39.3
2018-07-31T11:31:02.183Z,39.4
2018-07-31T11:32:09.174Z,39.7
2018-07-31T11:33:16.418Z,39.8
2018-07-31T11:34:23.647Z,39.9
2018-07-31T11:35:30.882Z,40.1
2018-07-31T11:36:38.102Z,40.3
2018-07-31T11:37:45.332Z,40.2
2018-07-31T11:38:52.668Z,40
2018-07-31T11:39:59.353Z,40.2
2018-07-31T11:41:06.324Z,40.3
2018-07-31T11:42:13.545Z,40.6
2018-07-31T11:43:20.770Z,40.7
2018-07-31T11:44:27.997Z,40.6
2018-07-31T11:45:35.222Z,40.4
2018-07-31T11:46:42.165Z,40.3
2018-07-31T11:47:49.394Z,40.4
2018-07-31T11:48:56.618Z,40
2018-07-31T11:50:04.134Z,39.6
2018-07-31T11:51:11.967Z,39.6
2018-07-31T11:52:18.925Z,39.5
2018-07-31T11:53:26.160Z,39.7
2018-07-31T11:54:33.387Z,40.1
2018-07-31T11:55:40.614Z,40.4
2018-07-31T11:56:47.839Z,40.9
2018-07-31T11:57:55.066Z,41.2
2018-07-31T11:59:02.035Z,41.4
2018-07-31T22:00:06.676Z,23.7
2018-07-31T22:01:13.925Z,23.6
2018-07-31T22:02:21.144Z,23.6
2018-07-31T22:03:28.086Z,23.6
2018-07-31T22:04:35.302Z,23.6
2018-07-31T22:05:42.543Z,23.6
2018-07-31T22:06:49.811Z,23.6
2018-07-31T22:07:57.025Z,23.6
2018-07-31T22:09:04.252Z,23.5
2018-07-31T22:10:11.462Z,23.5
2018-07-31T22:11:18.679Z,23.5
2018-07-31T22:12:25.903Z,23.5
2018-07-31T22:13:33.124Z,23.4
2018-07-31T22:14:40.347Z,23.5
2018-07-31T22:15:47.560Z,23.4
2018-07-31T22:16:54.776Z,23.4
2018-07-31T22:18:01.994Z,23.4
2018-07-31T22:19:09.212Z,23.3
2018-07-31T22:20:16.151Z,23.4
2018-07-31T22:21:23.371Z,23.3
2018-07-31T22:22:30.588Z,23.3
2018-07-31T22:23:37.803Z,23.3
2018-07-31T22:24:45.121Z,23.3
2018-07-31T22:25:52.390Z,23.3
2018-07-31T22:26:59.609Z,23.2
2018-07-31T22:28:06.822Z,23.2
2018-07-31T22:29:14.041Z,23.2
2018-07-31T22:30:21.291Z,23.2
2018-07-31T22:31:28.506Z,23.1
2018-07-31T22:32:35.722Z,23.1
2018-07-31T22:33:42.938Z,23.1
2018-07-31T22:34:50.153Z,23.1
2018-07-31T22:35:57.369Z,23.1
2018-07-31T22:37:04.584Z,23.1
2018-07-31T22:38:11.800Z,23.1
2018-07-31T22:39:19.024Z,23.1
2018-07-31T22:40:26.235Z,23
2018-07-31T22:41:33.454Z,23
2018-07-31T22:42:40.670Z,23
2018-07-31T22:43:47.894Z,22.9
2018-07-31T22:44:55.109Z,22.9
2018-07-31T22:46:02.325Z,22.9
2018-07-31T22:47:09.542Z,22.9
2018-07-31T22:48:16.766Z,22.8
2018-07-31T22:49:23.700Z,22.8
2018-07-31T22:50:30.912Z,22.8
2018-07-31T22:51:38.124Z,22.8
2018-07-31T22:52:45.344Z,22.8
2018-07-31T22:53:52.319Z,22.8
2018-07-31T22:54:59.539Z,22.7
2018-07-31T22:56:06.750Z,22.7
2018-07-31T22:57:13.690Z,22.7
2018-07-31T22:58:20.625Z,22.7
2018-07-31T22:59:27.837Z,22.7
2018-07-31T23:00:35.055Z,22.7
2018-07-31T23:01:42.270Z,22.7
2018-07-31T23:02:49.485Z,22.7
2018-07-31T23:03:56.719Z,22.7
2018-07-31T23:05:03.935Z,22.6
2018-07-31T23:06:11.152Z,22.6
2018-07-31T23:07:18.412Z,22.6
2018-07-31T23:08:25.706Z,22.6
2018-07-31T23:09:32.929Z,22.6
2018-07-31T23:10:40.138Z,22.5
2018-07-31T23:11:47.356Z,22.5
2018-07-31T23:12:54.573Z,22.5
2018-07-31T23:14:01.843Z,22.5
2018-07-31T23:15:09.144Z,22.5
2018-07-31T23:16:16.084Z,22.5
2018-07-31T23:17:23.300Z,22.4
2018-07-31T23:18:30.515Z,22.4
2018-07-31T23:19:37.728Z,22.4
2018-07-31T23:20:45.043Z,22.4
2018-07-31T23:21:52.363Z,22.3
2018-07-31T23:22:59.584Z,22.3
2018-07-31T23:24:06.798Z,22.3
2018-07-31T23:25:14.017Z,22.4
2018-07-31T23:26:21.235Z,22.3
2018-07-31T23:27:28.445Z,22.3
2018-07-31T23:28:35.802Z,22.3
2018-07-31T23:29:43.028Z,22.3
2018-07-31T23:30:50.247Z,22.2
2018-07-31T23:31:57.462Z,22.2
2018-07-31T23:33:04.686Z,22.2
2018-07-31T23:34:11.892Z,22.2
2018-07-31T23:35:18.840Z,22.2
2018-07-31T23:36:26.059Z,22.2
2018-07-31T23:37:33.268Z,22.2
2018-07-31T23:38:40.484Z,22.2
2018-07-31T23:39:47.696Z,22.3
2018-07-31T23:40:54.913Z,22.3
2018-07-31T23:42:02.132Z,22.2
2018-07-31T23:43:09.345Z,22.2
2018-07-31T23:44:16.560Z,22.2
2018-07-31T23:45:23.503Z,22.2
2018-07-31T23:46:30.720Z,22.2
2018-07-31T23:47:37.946Z,22.2
2018-07-31T23:48:45.156Z,22.2
2018-07-31T23:49:52.101Z,22.2
2018-07-31T23:50:59.324Z,22.2
2018-07-31T23:52:06.537Z,22.2
2018-07-31T23:53:13.752Z,22.2
2018-07-31T23:54:20.975Z,22.1
2018-07-31T23:55:28.193Z,22.1
2018-07-31T23:56:35.410Z,22.1
2018-07-31T23:57:42.848Z,22.1
2018-07-31T23:58:50.059Z,22.2
2018-07-31T23:59:57.275Z,22.2
